Time;durP1;ratioP1;P1;durP2;ratioP2;P2;SDS_P1;SDS_P2;PMS_P1;PMS_P2;Temp;Humidity;BMP_temperature;BMP_pressure;BME280_temperature;BME280_humidity;BME280_pressure;Samples;Min_cycle;Max_cycle;Signal;HPM_P1;HPM_P2
2022/05/17 00:00:44;;;;;;;12.00;5.50;;;16.40;99.90;;;;;;5123082;27;20229;-64
2022/05/17 00:03:13;;;;;;;8.37;5.60;;;16.50;99.90;;;;;;5122240;27;20248;-64
2022/05/17 00:05:42;;;;;;;7.53;5.00;;;16.40;99.90;;;;;;5122572;27;20260;-64
2022/05/17 00:08:11;;;;;;;7.30;5.57;;;16.40;99.90;;;;;;5122621;27;20244;-64
2022/05/17 00:10:40;;;;;;;7.50;5.53;;;16.40;99.90;;;;;;5122666;27;20240;-63
2022/05/17 00:13:09;;;;;;;9.73;6.30;;;16.50;99.90;;;;;;5121978;27;20253;-62
2022/05/17 00:15:43;;;;;;;9.07;6.33;;;16.50;99.90;;;;;;5122245;27;20236;-63
2022/05/17 00:18:13;;;;;;;8.07;6.07;;;16.40;99.90;;;;;;5122741;27;20879;-63
2022/05/17 00:20:43;;;;;;;11.17;6.27;;;16.40;99.90;;;;;;5122002;27;20719;-64
2022/05/17 00:23:15;;;;;;;9.87;6.83;;;16.40;99.90;;;;;;5120366;27;20241;-64
2022/05/17 00:25:47;;;;;;;7.20;6.27;;;16.40;99.90;;;;;;5122516;27;20713;-62
2022/05/17 00:28:16;;;;;;;9.30;6.67;;;16.40;99.90;;;;;;5122527;27;20233;-64
2022/05/17 00:30:44;;;;;;;9.83;7.00;;;16.40;99.90;;;;;;5122311;27;20330;-64
2022/05/17 00:33:14;;;;;;;11.00;7.07;;;16.40;99.90;;;;;;5121680;27;20619;-64
2022/05/17 00:35:43;;;;;;;11.23;6.93;;;16.40;99.90;;;;;;5122022;27;20228;-63
2022/05/17 00:38:12;;;;;;;10.17;6.67;;;16.40;99.90;;;;;;5122232;27;20243;-63
2022/05/17 00:40:41;;;;;;;8.40;6.00;;;16.30;99.90;;;;;;5122003;27;21418;-64
2022/05/17 00:43:10;;;;;;;7.83;6.17;;;16.40;99.90;;;;;;5121346;27;20669;-63
2022/05/17 00:45:44;;;;;;;9.87;7.00;;;16.40;99.90;;;;;;5122136;27;20693;-63
2022/05/17 00:48:16;;;;;;;9.63;7.83;;;16.40;99.90;;;;;;5121730;27;20243;-63
2022/05/17 00:50:47;;;;;;;10.67;7.40;;;16.30;99.90;;;;;;5121144;27;20233;-64
2022/05/17 00:53:20;;;;;;;9.63;6.93;;;16.30;99.90;;;;;;5121218;27;20241;-63
2022/05/17 00:55:52;;;;;;;10.10;7.57;;;16.30;99.90;;;;;;5121749;27;20315;-62
2022/05/17 00:58:24;;;;;;;8.93;7.13;;;16.30;99.90;;;;;;5121455;27;20954;-63
2022/05/17 01:01:02;;;;;;;8.93;7.00;;;16.30;99.90;;;;;;5121714;27;20887;-64
2022/05/17 01:03:38;;;;;;;8.37;6.53;;;16.30;99.90;;;;;;5120761;27;20263;-64
2022/05/17 01:06:08;;;;;;;9.10;6.83;;;16.40;99.90;;;;;;5121215;27;20237;-62
2022/05/17 01:08:36;;;;;;;11.13;7.03;;;16.40;99.90;;;;;;5121072;27;20252;-64
2022/05/17 01:11:04;;;;;;;11.23;7.27;;;16.40;99.90;;;;;;5121801;27;20252;-63
2022/05/17 01:16:20;;;;;;;13.20;8.70;;;16.50;99.90;;;;;;5095143;27;20313;-64
2022/05/17 01:18:50;;;;;;;11.93;8.47;;;16.40;99.90;;;;;;5121383;27;20748;-62
2022/05/17 01:21:20;;;;;;;13.63;8.50;;;16.30;99.90;;;;;;5121409;27;20819;-63
2022/05/17 01:23:49;;;;;;;11.13;8.47;;;16.20;99.90;;;;;;5121245;27;20589;-62
2022/05/17 01:26:20;;;;;;;10.23;8.40;;;16.20;99.90;;;;;;5121659;27;20641;-63
2022/05/17 01:28:49;;;;;;;10.93;8.43;;;16.20;99.90;;;;;;5121680;27;20696;-62
2022/05/17 01:31:18;;;;;;;12.63;7.90;;;16.20;99.90;;;;;;5105800;27;20237;-63
2022/05/17 01:33:47;;;;;;;10.73;8.47;;;16.20;99.90;;;;;;5119741;27;20747;-63
2022/05/17 01:36:21;;;;;;;11.80;8.27;;;16.20;99.90;;;;;;5121388;27;20241;-63
2022/05/17 01:38:51;;;;;;;12.03;8.13;;;16.30;99.90;;;;;;5104871;27;20235;-63
2022/05/17 01:41:20;;;;;;;11.43;8.60;;;16.20;99.90;;;;;;5121417;27;20228;-62
2022/05/17 01:43:50;;;;;;;12.97;9.23;;;16.20;99.90;;;;;;5122241;27;20248;-62
2022/05/17 01:46:20;;;;;;;10.83;8.47;;;16.20;99.90;;;;;;5125835;27;20585;-62
2022/05/17 01:48:49;;;;;;;10.73;9.00;;;16.10;99.90;;;;;;5124566;27;20705;-63
2022/05/17 01:51:17;;;;;;;12.37;8.63;;;16.10;99.90;;;;;;5125441;27;20245;-63
2022/05/17 01:53:45;;;;;;;9.07;8.07;;;16.10;99.90;;;;;;5123860;27;20580;-63
2022/05/17 01:56:15;;;;;;;10.87;8.33;;;16.00;99.90;;;;;;5125367;27;20336;-64
2022/05/17 01:58:43;;;;;;;8.70;7.63;;;16.00;99.90;;;;;;5123806;27;20229;-65
2022/05/17 02:01:12;;;;;;;8.93;7.63;;;16.10;99.90;;;;;;5124897;27;20237;-64
2022/05/17 02:03:40;;;;;;;11.03;7.60;;;16.20;99.90;;;;;;5123946;27;20240;-64
2022/05/17 02:06:09;;;;;;;9.00;7.23;;;16.20;99.90;;;;;;5125423;27;20237;-63
2022/05/17 02:08:38;;;;;;;10.83;8.47;;;16.20;99.90;;;;;;5124787;27;20316;-64
2022/05/17 02:11:08;;;;;;;11.43;9.03;;;16.20;99.90;;;;;;5125078;27;20359;-64
2022/05/17 02:13:38;;;;;;;12.87;9.30;;;16.20;99.90;;;;;;5124017;27;20829;-65
2022/05/17 02:16:08;;;;;;;9.67;8.67;;;16.10;99.90;;;;;;5124811;27;20721;-63
2022/05/17 02:18:37;;;;;;;10.73;8.50;;;16.10;99.90;;;;;;5123700;27;20229;-63
2022/05/17 02:21:05;;;;;;;11.40;8.97;;;16.10;99.90;;;;;;5123346;27;20241;-65
2022/05/17 02:23:33;;;;;;;9.27;7.93;;;16.10;99.90;;;;;;5124127;27;20615;-63
2022/05/17 02:26:01;;;;;;;8.77;7.87;;;16.10;99.90;;;;;;5124676;27;20261;-64
2022/05/17 02:28:29;;;;;;;10.03;8.90;;;16.20;99.90;;;;;;5125124;27;20237;-62
2022/05/17 02:30:59;;;;;;;11.37;10.00;;;16.20;99.90;;;;;;5122977;27;20328;-62
2022/05/17 02:33:27;;;;;;;11.33;10.07;;;16.20;99.90;;;;;;5122677;27;20232;-62
2022/05/17 02:35:55;;;;;;;12.83;10.37;;;16.10;99.90;;;;;;5124320;27;20241;-63
2022/05/17 02:38:24;;;;;;;11.63;10.33;;;16.10;99.90;;;;;;5123343;27;20241;-63
2022/05/17 02:40:52;;;;;;;12.03;9.90;;;16.00;99.90;;;;;;5124063;27;20787;-64
2022/05/17 02:43:20;;;;;;;13.37;10.90;;;16.00;99.90;;;;;;5122910;27;20248;-63
2022/05/17 02:45:48;;;;;;;13.27;11.87;;;16.00;99.90;;;;;;5124280;27;20481;-63
2022/05/17 02:48:18;;;;;;;14.43;11.37;;;16.00;99.90;;;;;;5124214;27;20242;-64
2022/05/17 02:50:46;;;;;;;14.47;10.57;;;15.90;99.90;;;;;;5124178;27;20717;-62
2022/05/17 02:53:14;;;;;;;14.70;12.07;;;16.00;99.90;;;;;;5122117;27;20724;-63
2022/05/17 02:55:42;;;;;;;13.13;11.10;;;16.00;99.90;;;;;;5122917;27;20851;-64
2022/05/17 02:58:11;;;;;;;13.07;11.60;;;16.00;99.90;;;;;;5124267;27;20244;-64
2022/05/17 03:00:40;;;;;;;13.03;11.43;;;15.90;99.90;;;;;;5122636;27;20255;-63
2022/05/17 03:03:10;;;;;;;13.27;11.20;;;15.90;99.90;;;;;;5123424;27;20251;-63
2022/05/17 03:05:40;;;;;;;12.93;11.07;;;15.80;99.90;;;;;;5123013;27;20241;-63
2022/05/17 03:08:09;;;;;;;12.60;11.07;;;15.80;99.90;;;;;;5124278;27;20739;-64
2022/05/17 03:10:37;;;;;;;12.47;10.73;;;15.80;99.90;;;;;;5123474;27;20229;-63
2022/05/17 03:13:05;;;;;;;13.97;10.13;;;15.90;99.90;;;;;;5123162;27;20257;-63
2022/05/17 03:15:33;;;;;;;14.27;10.83;;;15.90;99.90;;;;;;5122088;27;20229;-63
2022/05/17 03:18:02;;;;;;;15.27;11.43;;;15.90;99.90;;;;;;5111364;27;20265;-63
2022/05/17 03:20:30;;;;;;;13.57;11.00;;;15.90;99.90;;;;;;5123313;27;20244;-64
2022/05/17 03:22:59;;;;;;;13.20;9.97;;;15.80;99.90;;;;;;5122630;27;20282;-63
2022/05/17 03:25:27;;;;;;;14.67;11.07;;;15.90;99.90;;;;;;5123790;27;20233;-65
2022/05/17 03:27:56;;;;;;;13.83;10.83;;;15.90;99.90;;;;;;5123545;27;20238;-63
2022/05/17 03:30:24;;;;;;;13.43;10.60;;;15.80;99.90;;;;;;5123234;27;20237;-63
2022/05/17 03:32:53;;;;;;;16.23;11.07;;;15.80;99.90;;;;;;5122555;27;20591;-64
2022/05/17 03:35:22;;;;;;;11.20;9.77;;;15.80;99.90;;;;;;5123652;27;20233;-63
2022/05/17 03:37:51;;;;;;;11.00;9.23;;;15.80;99.90;;;;;;5121954;27;20244;-63
2022/05/17 03:40:20;;;;;;;11.50;9.07;;;16.00;99.90;;;;;;5122648;27;20241;-63
2022/05/17 03:42:48;;;;;;;12.10;8.87;;;16.10;99.90;;;;;;5105416;27;20241;-63
2022/05/17 03:45:16;;;;;;;11.13;9.67;;;16.20;99.90;;;;;;5122687;27;20317;-63
2022/05/17 03:47:45;;;;;;;13.13;11.10;;;16.20;99.90;;;;;;5123207;27;20233;-63
2022/05/17 03:50:14;;;;;;;12.10;9.80;;;16.20;99.90;;;;;;5123052;27;20237;-63
2022/05/17 03:52:42;;;;;;;11.33;9.47;;;16.30;99.90;;;;;;5121070;27;20232;-63
2022/05/17 03:55:11;;;;;;;12.20;10.90;;;16.30;99.90;;;;;;5123077;27;20225;-62
2022/05/17 03:57:40;;;;;;;11.40;9.90;;;16.30;99.90;;;;;;5122791;27;20259;-63
2022/05/17 04:00:10;;;;;;;11.17;8.93;;;16.30;99.90;;;;;;5121488;27;20580;-63
2022/05/17 04:02:41;;;;;;;13.23;9.87;;;16.40;99.90;;;;;;5121466;27;20319;-62
2022/05/17 04:05:11;;;;;;;10.73;9.60;;;16.40;99.90;;;;;;5122721;27;20320;-63
2022/05/17 04:07:39;;;;;;;11.77;10.67;;;16.50;99.90;;;;;;5122166;27;20229;-63
2022/05/17 04:10:09;;;;;;;14.33;10.57;;;16.50;99.90;;;;;;5122792;27;20577;-63
2022/05/17 04:12:37;;;;;;;13.13;11.30;;;16.50;99.90;;;;;;5121827;27;20324;-64
2022/05/17 04:15:10;;;;;;;13.37;11.20;;;16.40;99.90;;;;;;5123330;27;20238;-64
2022/05/17 04:17:39;;;;;;;13.63;12.07;;;16.30;99.90;;;;;;5123340;27;20233;-63
2022/05/17 04:20:15;;;;;;;12.33;11.03;;;16.20;99.90;;;;;;5123727;27;20240;-63
2022/05/17 04:22:44;;;;;;;13.17;11.07;;;16.10;99.90;;;;;;5122802;27;20285;-63
2022/05/17 04:25:12;;;;;;;11.77;10.47;;;16.10;99.90;;;;;;5123606;27;20237;-63
2022/05/17 04:27:41;;;;;;;14.30;12.80;;;16.20;99.90;;;;;;5123757;27;20304;-63
2022/05/17 04:30:12;;;;;;;14.43;12.87;;;16.20;99.90;;;;;;5122471;27;20241;-63
2022/05/17 04:32:42;;;;;;;13.77;12.37;;;16.10;99.90;;;;;;5122368;27;20647;-63
2022/05/17 04:35:11;;;;;;;14.00;12.20;;;16.00;99.90;;;;;;5123772;27;20234;-63
2022/05/17 04:37:39;;;;;;;12.27;11.03;;;16.00;99.90;;;;;;5121553;27;20231;-63
2022/05/17 04:40:09;;;;;;;13.10;10.77;;;16.00;99.90;;;;;;5121424;27;20241;-63
2022/05/17 04:42:38;;;;;;;11.87;10.67;;;16.10;99.90;;;;;;5120715;27;20722;-63
2022/05/17 04:45:11;;;;;;;12.70;11.13;;;16.10;99.90;;;;;;5121558;27;20237;-65
2022/05/17 04:47:40;;;;;;;13.43;11.60;;;16.10;99.90;;;;;;5121726;27;20234;-63
2022/05/17 04:50:09;;;;;;;14.27;12.43;;;16.10;99.90;;;;;;5121329;27;20233;-63
2022/05/17 04:52:37;;;;;;;17.63;13.10;;;16.00;99.90;;;;;;5121834;27;20730;-63
2022/05/17 04:55:08;;;;;;;14.53;12.80;;;16.30;99.90;;;;;;5123355;27;20634;-63
2022/05/17 04:57:37;;;;;;;13.37;11.93;;;16.20;99.90;;;;;;5122209;27;20252;-64
2022/05/17 05:00:08;;;;;;;13.77;12.17;;;16.10;99.90;;;;;;5121367;27;20298;-63
2022/05/17 05:02:38;;;;;;;14.30;12.80;;;16.10;99.90;;;;;;5120809;27;20260;-63
2022/05/17 05:05:07;;;;;;;14.27;12.70;;;16.10;99.90;;;;;;5121927;27;20286;-63
2022/05/17 05:07:36;;;;;;;15.33;12.87;;;16.10;99.90;;;;;;5122152;27;20814;-64
2022/05/17 05:10:05;;;;;;;14.90;13.30;;;16.00;99.90;;;;;;5121758;28;20676;-63
2022/05/17 05:12:33;;;;;;;15.90;13.63;;;16.00;99.90;;;;;;5120863;27;20247;-63
2022/05/17 05:15:02;;;;;;;16.97;15.17;;;16.10;99.90;;;;;;5120957;27;20653;-64
2022/05/17 05:17:31;;;;;;;16.77;14.47;;;16.00;99.90;;;;;;5121250;27;20685;-63
2022/05/17 05:20:01;;;;;;;20.83;14.97;;;16.00;99.90;;;;;;5125518;27;20580;-63
2022/05/17 05:22:31;;;;;;;16.30;14.10;;;16.20;99.90;;;;;;5120690;27;20236;-64
2022/05/17 05:25:00;;;;;;;16.70;14.90;;;16.20;99.90;;;;;;5120629;27;20240;-63
2022/05/17 05:27:32;;;;;;;17.77;15.23;;;16.10;99.90;;;;;;5120414;27;20606;-64
2022/05/17 05:30:01;;;;;;;18.93;15.67;;;16.00;99.90;;;;;;5119901;27;20237;-64
2022/05/17 05:32:29;;;;;;;17.27;14.23;;;16.00;99.90;;;;;;5123312;27;20241;-63
2022/05/17 05:34:57;;;;;;;19.43;16.37;;;16.10;99.90;;;;;;5126004;27;20233;-64
2022/05/17 05:37:27;;;;;;;19.70;14.27;;;16.10;99.90;;;;;;5125955;27;20245;-64
2022/05/17 05:39:55;;;;;;;19.27;15.57;;;16.10;99.90;;;;;;5127334;27;20240;-63
2022/05/17 05:42:23;;;;;;;21.20;16.03;;;16.20;99.90;;;;;;5126505;27;20241;-64
2022/05/17 05:44:52;;;;;;;25.50;16.70;;;16.30;99.90;;;;;;5124543;27;20731;-64
2022/05/17 05:47:20;;;;;;;24.10;16.93;;;16.40;99.90;;;;;;5125449;27;20657;-64
2022/05/17 05:49:50;;;;;;;24.97;18.10;;;16.30;99.90;;;;;;5125475;27;20719;-63
2022/05/17 05:52:19;;;;;;;29.23;19.33;;;16.50;99.90;;;;;;5124314;27;20229;-63
2022/05/17 05:54:48;;;;;;;23.40;17.60;;;16.60;99.90;;;;;;5125278;27;20228;-63
2022/05/17 05:57:16;;;;;;;23.93;17.63;;;16.60;99.90;;;;;;5125462;27;20634;-64
2022/05/17 05:59:46;;;;;;;24.60;16.90;;;16.50;99.90;;;;;;5124961;27;20243;-64
2022/05/17 06:02:14;;;;;;;30.93;20.93;;;16.50;99.90;;;;;;5124005;27;20233;-65
2022/05/17 06:04:42;;;;;;;28.97;21.03;;;16.60;99.90;;;;;;5124519;27;20260;-63
2022/05/17 06:07:10;;;;;;;32.23;22.13;;;16.50;99.90;;;;;;5124177;27;20646;-62
2022/05/17 06:09:39;;;;;;;29.63;20.43;;;16.50;99.90;;;;;;5124913;27;20233;-63
2022/05/17 06:12:10;;;;;;;31.10;21.33;;;16.70;99.90;;;;;;5125403;27;20895;-63
2022/05/17 06:14:38;;;;;;;30.03;19.43;;;16.70;99.90;;;;;;5124649;27;20723;-63
2022/05/17 06:17:06;;;;;;;32.43;20.47;;;16.70;99.90;;;;;;5125002;27;20658;-64
2022/05/17 06:19:34;;;;;;;29.53;21.83;;;17.00;99.90;;;;;;5125002;27;20320;-63
2022/05/17 06:22:03;;;;;;;30.80;22.63;;;16.90;99.90;;;;;;5124228;27;20244;-64
2022/05/17 06:24:33;;;;;;;29.23;21.47;;;17.00;99.90;;;;;;5124681;27;20239;-63
2022/05/17 06:27:02;;;;;;;29.40;20.23;;;17.00;99.90;;;;;;5124470;27;20322;-65
2022/05/17 06:29:32;;;;;;;25.60;19.80;;;17.10;99.90;;;;;;5124755;27;20237;-64
2022/05/17 06:32:00;;;;;;;29.93;20.73;;;17.20;99.90;;;;;;5124725;27;20285;-62
2022/05/17 06:34:28;;;;;;;27.00;19.50;;;17.20;99.90;;;;;;5123835;27;20236;-63
2022/05/17 06:36:56;;;;;;;27.43;20.27;;;17.10;99.90;;;;;;5122911;27;20237;-62
2022/05/17 06:39:24;;;;;;;29.63;21.13;;;17.10;99.90;;;;;;5119639;27;20233;-62
2022/05/17 06:41:53;;;;;;;29.37;21.43;;;17.10;99.90;;;;;;5118962;27;20712;-64
2022/05/17 06:44:24;;;;;;;24.33;18.73;;;17.10;99.90;;;;;;5123086;27;20238;-63
2022/05/17 06:46:55;;;;;;;25.57;18.43;;;17.10;99.90;;;;;;5123585;27;20717;-63
2022/05/17 06:49:24;;;;;;;22.03;17.33;;;17.10;99.90;;;;;;5123985;27;20655;-63
2022/05/17 06:51:53;;;;;;;22.47;16.83;;;17.20;99.90;;;;;;5124065;27;20686;-63
2022/05/17 06:54:21;;;;;;;23.37;17.17;;;17.20;99.90;;;;;;5122476;27;20282;-63
2022/05/17 06:56:49;;;;;;;19.47;16.33;;;17.20;99.90;;;;;;5122970;27;20248;-64
2022/05/17 06:59:18;;;;;;;20.30;16.97;;;17.20;99.90;;;;;;5125033;27;20332;-63
2022/05/17 07:01:49;;;;;;;23.37;17.03;;;17.20;99.90;;;;;;5125439;27;20651;-63
2022/05/17 07:04:19;;;;;;;20.33;15.80;;;17.20;99.90;;;;;;5124234;27;20246;-64
2022/05/17 07:06:47;;;;;;;19.67;15.03;;;17.20;99.90;;;;;;5125452;27;20222;-63
2022/05/17 07:09:15;;;;;;;18.77;15.17;;;17.30;99.90;;;;;;5125232;27;20726;-64
2022/05/17 07:14:29;;;;;;;16.77;14.97;;;17.30;99.90;;;;;;5125331;27;20574;-63
2022/05/17 07:16:58;;;;;;;18.67;15.57;;;17.30;99.90;;;;;;5126274;27;20600;-63
2022/05/17 07:19:27;;;;;;;18.93;15.03;;;17.30;99.90;;;;;;5126305;27;20259;-63
2022/05/17 07:22:01;;;;;;;19.50;16.10;;;17.30;99.90;;;;;;5125927;27;20245;-63
2022/05/17 07:24:30;;;;;;;18.07;15.47;;;17.40;99.90;;;;;;5125264;27;20604;-63
2022/05/17 07:26:59;;;;;;;19.30;15.83;;;17.40;99.90;;;;;;5124352;27;20282;-62
2022/05/17 07:29:48;;;;;;;19.93;16.33;;;17.40;99.90;;;;;;5124223;27;20229;-63
2022/05/17 07:32:16;;;;;;;18.00;15.57;;;17.50;99.90;;;;;;5123690;27;20228;-63
2022/05/17 07:34:47;;;;;;;20.77;16.43;;;17.50;99.90;;;;;;5124389;27;20320;-64
2022/05/17 07:37:16;;;;;;;19.77;15.87;;;17.60;99.90;;;;;;5126076;27;20707;-63
2022/05/17 07:39:44;;;;;;;21.73;15.97;;;17.70;99.90;;;;;;5125635;27;20242;-64
2022/05/17 07:42:12;;;;;;;21.03;15.90;;;17.70;99.90;;;;;;5123542;27;20246;-64
2022/05/17 07:44:40;;;;;;;20.67;15.83;;;17.70;99.90;;;;;;5123352;27;20261;-63
2022/05/17 07:47:15;;;;;;;23.87;17.07;;;17.80;99.90;;;;;;5124224;27;20236;-63
2022/05/17 07:49:43;;;;;;;23.73;17.53;;;17.90;99.90;;;;;;5123789;27;20253;-64
2022/05/17 07:52:13;;;;;;;24.27;17.37;;;18.00;99.90;;;;;;5123317;27;20337;-63
2022/05/17 07:54:43;;;;;;;21.80;17.30;;;18.00;99.90;;;;;;5124626;27;20581;-64
2022/05/17 07:57:11;;;;;;;27.87;19.43;;;18.00;99.90;;;;;;5125869;27;20271;-63
2022/05/17 07:59:39;;;;;;;22.77;17.70;;;18.00;99.90;;;;;;5123783;27;20234;-63
2022/05/17 08:02:07;;;;;;;24.37;17.30;;;18.10;99.90;;;;;;5123395;27;20927;-63
2022/05/17 08:04:36;;;;;;;31.53;19.50;;;18.10;99.90;;;;;;5123392;27;20697;-64
2022/05/17 08:07:05;;;;;;;31.97;20.73;;;18.20;99.90;;;;;;5123915;27;20240;-63
2022/05/17 08:09:36;;;;;;;33.27;20.23;;;18.20;99.90;;;;;;5124507;27;20329;-63
2022/05/17 08:12:07;;;;;;;29.43;20.27;;;18.30;99.90;;;;;;5124813;27;20329;-64
2022/05/17 08:14:35;;;;;;;37.40;21.50;;;18.30;99.90;;;;;;5123665;27;20243;-63
2022/05/17 08:17:06;;;;;;;33.67;20.87;;;18.30;99.90;;;;;;5125060;27;20284;-64
2022/05/17 08:19:35;;;;;;;32.73;21.07;;;18.30;99.90;;;;;;5125359;27;20234;-63
2022/05/17 08:22:04;;;;;;;36.13;22.43;;;18.30;99.90;;;;;;5124950;27;20270;-64
2022/05/17 08:27:31;;;;;;;38.70;24.57;;;18.30;99.90;;;;;;5124343;27;20238;-64
2022/05/17 08:27:31;;;;;;;35.67;23.50;;;18.20;99.90;;;;;;5124885;27;20329;-64
2022/05/17 08:30:00;;;;;;;43.53;25.17;;;18.20;99.90;;;;;;5124983;27;20234;-63
2022/05/17 08:35:14;;;;;;;42.13;25.43;;;18.30;99.90;;;;;;5124638;27;20247;-64
2022/05/17 08:37:42;;;;;;;40.37;24.30;;;18.30;99.90;;;;;;5124806;27;20237;-65
2022/05/17 08:40:19;;;;;;;36.50;24.63;;;18.40;99.90;;;;;;5125018;27;20236;-63
2022/05/17 08:43:04;;;;;;;42.80;25.13;;;18.40;99.90;;;;;;5123778;27;20234;-64
2022/05/17 08:45:39;;;;;;;46.43;27.50;;;18.40;99.90;;;;;;5124141;27;20243;-63
2022/05/17 08:48:17;;;;;;;46.93;26.77;;;18.40;99.90;;;;;;5125017;27;20241;-63
2022/05/17 08:50:47;;;;;;;40.33;23.50;;;18.50;99.90;;;;;;5124279;27;20246;-64
2022/05/17 08:53:19;;;;;;;41.53;25.70;;;18.60;99.90;;;;;;5124129;27;20250;-63
2022/05/17 08:55:50;;;;;;;43.30;25.73;;;18.60;99.90;;;;;;5124502;27;20737;-65
2022/05/17 08:58:22;;;;;;;43.77;25.63;;;18.70;99.90;;;;;;5123892;27;20319;-64
2022/05/17 09:00:54;;;;;;;46.63;26.90;;;18.70;99.90;;;;;;5124626;27;20231;-63
2022/05/17 09:03:44;;;;;;;52.23;26.50;;;18.60;99.90;;;;;;5123845;27;20239;-63
2022/05/17 09:06:17;;;;;;;47.07;26.97;;;18.60;99.90;;;;;;5124186;27;20261;-64
2022/05/17 09:08:52;;;;;;;47.87;27.07;;;18.60;99.90;;;;;;5124486;27;20647;-64
2022/05/17 09:11:23;;;;;;;47.37;25.90;;;18.70;99.90;;;;;;5124515;27;20891;-63
2022/05/17 09:13:58;;;;;;;40.17;25.53;;;18.90;99.90;;;;;;5121617;27;20603;-64
2022/05/17 09:16:48;;;;;;;40.70;24.63;;;19.10;99.90;;;;;;5121168;27;20239;-63
2022/05/17 09:19:18;;;;;;;43.30;25.73;;;19.30;99.90;;;;;;5121442;27;20548;-64
2022/05/17 09:21:48;;;;;;;37.70;22.07;;;19.50;99.90;;;;;;5122205;27;20236;-65
2022/05/17 09:24:19;;;;;;;43.00;25.60;;;19.80;99.90;;;;;;5122075;27;20326;-65
2022/05/17 09:26:52;;;;;;;37.33;24.37;;;20.00;99.90;;;;;;5123348;27;20319;-63
2022/05/17 09:29:25;;;;;;;39.23;24.73;;;20.20;99.90;;;;;;5123879;27;20738;-63
2022/05/17 09:31:56;;;;;;;40.77;23.73;;;20.50;99.90;;;;;;5124303;27;20236;-64
2022/05/17 09:34:33;;;;;;;33.53;22.17;;;20.60;99.90;;;;;;5123244;27;20232;-64
2022/05/17 09:37:06;;;;;;;33.27;22.87;;;20.70;99.90;;;;;;5123592;27;20244;-64
2022/05/17 09:39:34;;;;;;;35.90;22.77;;;20.70;99.90;;;;;;5123107;27;20293;-64
2022/05/17 09:42:04;;;;;;;40.57;23.07;;;20.70;99.90;;;;;;5123171;27;20247;-64
2022/05/17 09:44:45;;;;;;;36.33;21.37;;;20.60;99.90;;;;;;5123483;27;20246;-64
2022/05/17 09:47:23;;;;;;;32.47;21.87;;;20.70;99.90;;;;;;5123837;27;20266;-65
2022/05/17 09:52:44;;;;;;;33.60;20.20;;;20.70;99.90;;;;;;5121544;27;20241;-64
2022/05/17 09:55:22;;;;;;;34.03;21.40;;;20.70;99.90;;;;;;5121355;28;20278;-64
2022/05/17 09:57:55;;;;;;;40.50;23.67;;;20.70;99.90;;;;;;5121708;27;20228;-64
2022/05/17 10:00:27;;;;;;;28.00;19.80;;;20.60;99.90;;;;;;5122310;28;20229;-65
2022/05/17 10:03:00;;;;;;;31.17;21.03;;;20.70;99.90;;;;;;5121500;27;20272;-64
2022/05/17 10:05:43;;;;;;;34.50;21.50;;;20.90;99.90;;;;;;5125484;27;20591;-64
2022/05/17 10:08:31;;;;;;;29.70;20.67;;;21.30;99.90;;;;;;5126659;27;20259;-64
2022/05/17 10:11:06;;;;;;;30.80;21.13;;;22.30;99.90;;;;;;5124166;27;20233;-64
2022/05/17 10:13:40;;;;;;;28.03;21.20;;;22.60;99.90;;;;;;5125148;27;20244;-65
2022/05/17 10:16:14;;;;;;;31.20;22.93;;;22.80;99.90;;;;;;5126496;27;20229;-64
2022/05/17 10:18:47;;;;;;;36.00;23.73;;;23.70;99.90;;;;;;5125833;27;20240;-65
2022/05/17 10:21:22;;;;;;;30.43;20.63;;;23.50;99.90;;;;;;5125656;27;20241;-65
2022/05/17 10:23:57;;;;;;;32.17;22.07;;;23.10;99.90;;;;;;5124586;27;20282;-65
2022/05/17 10:26:30;;;;;;;34.30;23.63;;;22.90;99.90;;;;;;5126381;27;20325;-65
2022/05/17 10:29:03;;;;;;;28.67;20.60;;;22.70;99.90;;;;;;5125927;27;20231;-64
2022/05/17 10:31:39;;;;;;;30.57;19.43;;;22.70;99.90;;;;;;5564410;22;20257;-65
2022/05/17 10:34:25;;;;;;;29.63;22.13;;;22.90;99.90;;;;;;5106047;27;20289;-65
2022/05/17 10:36:59;;;;;;;30.90;22.50;;;22.70;99.90;;;;;;5109474;27;20664;-66
2022/05/17 10:39:33;;;;;;;30.87;21.80;;;22.70;99.90;;;;;;5109784;27;20237;-65
2022/05/17 10:42:02;;;;;;;33.50;23.63;;;22.70;99.90;;;;;;5107457;27;20335;-65
2022/05/17 10:44:39;;;;;;;31.60;22.20;;;22.70;99.90;;;;;;5105494;27;20225;-65
2022/05/17 10:47:15;;;;;;;34.10;23.40;;;23.00;99.90;;;;;;5107915;27;20245;-64
2022/05/17 10:49:56;;;;;;;28.67;22.63;;;23.30;99.90;;;;;;5108196;27;20596;-65
2022/05/17 10:52:32;;;;;;;30.33;21.57;;;23.60;99.90;;;;;;5108885;27;20314;-66
2022/05/17 10:55:08;;;;;;;28.07;22.10;;;23.60;99.90;;;;;;5111077;27;20269;-65
2022/05/17 10:57:44;;;;;;;33.27;23.73;;;23.30;99.90;;;;;;5112760;27;20580;-65
2022/05/17 11:00:18;;;;;;;29.63;22.60;;;23.40;99.90;;;;;;5106869;27;20240;-65
2022/05/17 11:03:20;;;;;;;27.57;19.63;;;23.40;99.90;;;;;;5106885;27;20680;-65
2022/05/17 11:06:02;;;;;;;28.97;21.30;;;23.30;99.90;;;;;;5108766;27;20317;-66
2022/05/17 11:08:48;;;;;;;29.00;22.07;;;23.20;99.90;;;;;;5111168;27;20711;-66
2022/05/17 11:11:29;;;;;;;33.30;23.07;;;23.00;99.90;;;;;;5106771;27;20313;-65
2022/05/17 11:14:01;;;;;;;34.07;25.53;;;22.90;99.90;;;;;;5108280;27;20228;-65
2022/05/17 11:16:36;;;;;;;35.80;25.23;;;22.90;99.90;;;;;;5107115;27;20245;-65
2022/05/17 11:19:11;;;;;;;33.90;25.47;;;22.50;99.90;;;;;;5108549;27;20236;-65
2022/05/17 11:21:49;;;;;;;33.60;24.53;;;22.50;99.90;;;;;;5111160;27;20236;-65
2022/05/17 11:24:29;;;;;;;33.60;25.30;;;22.50;99.90;;;;;;5107000;27;20306;-65
2022/05/17 11:27:10;;;;;;;35.47;25.67;;;22.50;99.90;;;;;;5110170;27;20331;-65
2022/05/17 11:30:09;;;;;;;32.83;22.67;;;22.30;99.90;;;;;;5106666;27;20323;-65
2022/05/17 11:32:41;;;;;;;30.80;23.97;;;22.30;99.90;;;;;;5102615;27;20237;-65
2022/05/17 11:35:39;;;;;;;32.37;24.57;;;22.30;99.90;;;;;;5107722;27;20269;-65
2022/05/17 11:38:08;;;;;;;32.20;23.77;;;22.40;99.90;;;;;;5105572;27;20847;-65
2022/05/17 11:40:56;;;;;;;33.77;24.40;;;22.40;99.90;;;;;;5106713;27;20229;-65
2022/05/17 11:43:50;;;;;;;34.63;26.50;;;22.40;99.90;;;;;;5106834;27;20652;-66
2022/05/17 11:46:45;;;;;;;31.27;23.77;;;22.40;99.90;;;;;;5107763;27;20270;-65
2022/05/17 11:49:29;;;;;;;33.93;24.37;;;22.50;99.90;;;;;;5106883;27;20754;-65
2022/05/17 11:52:33;;;;;;;35.60;24.60;;;22.40;99.90;;;;;;5112419;27;20327;-65
2022/05/17 11:55:05;;;;;;;33.50;24.40;;;22.30;99.90;;;;;;5106609;27;20229;-65
2022/05/17 11:58:05;;;;;;;30.30;23.27;;;22.10;99.90;;;;;;5104131;27;25350;-65
2022/05/17 12:00:45;;;;;;;32.37;25.07;;;21.90;99.90;;;;;;5105961;27;20319;-65
2022/05/17 12:03:36;;;;;;;34.57;26.40;;;21.80;99.90;;;;;;5108525;27;20245;-65
2022/05/17 12:06:10;;;;;;;35.07;25.83;;;21.70;99.90;;;;;;5107868;27;20236;-65
2022/05/17 12:08:43;;;;;;;33.27;25.80;;;21.50;99.90;;;;;;5108370;27;20306;-65
2022/05/17 12:11:23;;;;;;;34.20;26.27;;;21.40;99.90;;;;;;5105432;27;20723;-65
2022/05/17 12:13:55;;;;;;;32.43;23.00;;;21.30;99.90;;;;;;5107084;27;20320;-66
2022/05/17 12:16:26;;;;;;;34.83;25.87;;;21.30;99.90;;;;;;5106458;27;20256;-65
2022/05/17 12:19:00;;;;;;;29.73;25.97;;;21.30;99.90;;;;;;5105215;27;20244;-66
2022/05/17 12:21:51;;;;;;;36.27;27.80;;;21.30;99.90;;;;;;5106334;27;20774;-65
2022/05/17 12:24:39;;;;;;;30.27;24.87;;;21.40;99.90;;;;;;5104966;27;20294;-66
2022/05/17 12:27:20;;;;;;;31.27;24.90;;;21.30;99.90;;;;;;5110213;27;20308;-65
2022/05/17 12:32:43;;;;;;;34.87;27.70;;;21.60;99.90;;;;;;5108418;27;20596;-65
2022/05/17 12:35:12;;;;;;;45.43;26.07;;;21.50;99.90;;;;;;5108813;27;20248;-65
2022/05/17 12:37:43;;;;;;;34.23;25.03;;;21.40;99.90;;;;;;5104855;27;20240;-65
2022/05/17 12:43:07;;;;;;;35.87;24.77;;;21.70;99.90;;;;;;5103879;27;20244;-66
2022/05/17 12:45:41;;;;;;;29.13;23.70;;;21.80;99.90;;;;;;5104493;27;20711;-65
2022/05/17 12:48:16;;;;;;;32.93;25.53;;;21.90;99.90;;;;;;5106420;27;20238;-66
2022/05/17 12:50:46;;;;;;;36.10;27.17;;;22.00;99.90;;;;;;5106297;27;20286;-66
2022/05/17 12:53:21;;;;;;;32.50;26.60;;;21.90;99.90;;;;;;5105913;27;20320;-68
2022/05/17 12:56:06;;;;;;;30.67;25.37;;;22.00;99.90;;;;;;5106287;27;20236;-67
2022/05/17 12:58:38;;;;;;;29.47;23.63;;;21.90;99.90;;;;;;5104562;27;20276;-68
2022/05/17 13:01:08;;;;;;;31.97;25.03;;;21.90;99.90;;;;;;5102018;28;20711;-68
2022/05/17 13:03:43;;;;;;;27.57;21.80;;;21.70;99.90;;;;;;5102012;28;20532;-65
2022/05/17 13:06:12;;;;;;;26.80;21.97;;;21.60;99.90;;;;;;5104369;28;20241;-65
2022/05/17 13:08:40;;;;;;;26.50;21.20;;;21.60;99.90;;;;;;5104286;28;20780;-64
2022/05/17 13:11:12;;;;;;;30.10;24.27;;;21.90;99.90;;;;;;5104829;28;20628;-65